Minnewaska, Minnesota
Current Conditions -  °F | °C
As of 3:35 PM on Monday 24 Nov 2014 (Local Time) from KFSE Reporting Station
Broken Clouds Broken Clouds  
Wind Chill: -3°   Ceiling: 1400
Heat Index: 12°   Visibility: 10mi
Dew Point:   Wind: 13mph
Humidity: 85%   Direction: 330°NNW
Pressure: 29.78"   Gusts: 23mph
Location:  47.7926°N, 95.3062°W
Report Text: KFSE 242135Z AUTO 33011G20KT 10SM BKN014 M11/M13 A2978 RMK AO2
Loading
Personal Weather Stations






























Interactive Weather Map New forecast layout! Learn more

10-Day Weather Forecast

Advertisements
Track Severe Weather on mobile